sensor_id;sensor_type;location;lat;lon;timestamp;temperature;humidity
13835;DHT22;6988;52.614;13.500;2023-03-01T00:03:47;-1.90;99.90
13835;DHT22;6988;52.614;13.500;2023-03-01T00:08:39;-1.90;99.90
13835;DHT22;6988;52.614;13.500;2023-03-01T00:13:32;-1.90;99.90
13835;DHT22;6988;52.614;13.500;2023-03-01T00:18:24;-2.00;99.90
13835;DHT22;6988;52.614;13.500;2023-03-01T00:23:17;-2.00;99.90
13835;DHT22;6988;52.614;13.500;2023-03-01T00:28:09;-2.00;99.90
13835;DHT22;6988;52.614;13.500;2023-03-01T00:33:01;-2.00;99.90
13835;DHT22;6988;52.614;13.500;2023-03-01T00:37:53;-2.00;99.90
13835;DHT22;6988;52.614;13.500;2023-03-01T00:42:49;-2.10;99.90
13835;DHT22;6988;52.614;13.500;2023-03-01T00:47:41;-2.10;99.90
13835;DHT22;6988;52.614;13.500;2023-03-01T00:52:33;-2.10;99.90
13835;DHT22;6988;52.614;13.500;2023-03-01T00:57:25;-2.10;99.90
13835;DHT22;6988;52.614;13.500;2023-03-01T01:02:18;-2.10;99.90
13835;DHT22;6988;52.614;13.500;2023-03-01T01:07:10;-2.20;99.90
13835;DHT22;6988;52.614;13.500;2023-03-01T01:12:03;-2.20;99.90
13835;DHT22;6988;52.614;13.500;2023-03-01T01:16:55;-2.20;99.90
13835;DHT22;6988;52.614;13.500;2023-03-01T01:21:49;-2.30;99.90
13835;DHT22;6988;52.614;13.500;2023-03-01T01:26:43;-2.30;99.90
13835;DHT22;6988;52.614;13.500;2023-03-01T01:31:37;-2.40;99.90
13835;DHT22;6988;52.614;13.500;2023-03-01T01:36:32;-2.40;99.90
13835;DHT22;6988;52.614;13.500;2023-03-01T01:41:27;-2.40;99.90
13835;DHT22;6988;52.614;13.500;2023-03-01T01:46:25;-2.40;99.90
13835;DHT22;6988;52.614;13.500;2023-03-01T01:51:25;-2.50;99.90
13835;DHT22;6988;52.614;13.500;2023-03-01T01:56:20;-2.50;99.90
13835;DHT22;6988;52.614;13.500;2023-03-01T02:01:15;-2.60;99.90
13835;DHT22;6988;52.614;13.500;2023-03-01T02:06:12;-2.60;99.90
13835;DHT22;6988;52.614;13.500;2023-03-01T02:11:11;-2.60;99.90
13835;DHT22;6988;52.614;13.500;2023-03-01T02:16:08;-2.70;99.90
13835;DHT22;6988;52.614;13.500;2023-03-01T02:21:12;-2.70;99.90
13835;DHT22;6988;52.614;13.500;2023-03-01T02:26:21;-2.70;99.90
13835;DHT22;6988;52.614;13.500;2023-03-01T02:31:22;-2.80;99.90
13835;DHT22;6988;52.614;13.500;2023-03-01T02:36:35;-2.80;99.90
13835;DHT22;6988;52.614;13.500;2023-03-01T02:41:31;-2.80;99.90
13835;DHT22;6988;52.614;13.500;2023-03-01T02:46:28;-2.90;99.90
13835;DHT22;6988;52.614;13.500;2023-03-01T02:51:47;-2.90;99.90
13835;DHT22;6988;52.614;13.500;2023-03-01T02:56:47;-2.90;99.90
13835;DHT22;6988;52.614;13.500;2023-03-01T03:01:43;-2.90;99.90
13835;DHT22;6988;52.614;13.500;2023-03-01T03:06:35;-2.90;99.90
13835;DHT22;6988;52.614;13.500;2023-03-01T03:11:27;-2.90;99.90
13835;DHT22;6988;52.614;13.500;2023-03-01T03:16:20;-2.90;99.90
13835;DHT22;6988;52.614;13.500;2023-03-01T03:21:15;-3.00;99.90
13835;DHT22;6988;52.614;13.500;2023-03-01T03:26:07;-3.00;99.90
13835;DHT22;6988;52.614;13.500;2023-03-01T03:31:00;-3.00;99.90
13835;DHT22;6988;52.614;13.500;2023-03-01T03:35:53;-3.00;99.90
13835;DHT22;6988;52.614;13.500;2023-03-01T03:40:49;-3.10;99.90
13835;DHT22;6988;52.614;13.500;2023-03-01T03:45:45;-3.10;99.90
13835;DHT22;6988;52.614;13.500;2023-03-01T03:50:38;-3.10;99.90
13835;DHT22;6988;52.614;13.500;2023-03-01T03:55:31;-3.10;99.90
13835;DHT22;6988;52.614;13.500;2023-03-01T04:00:25;-3.20;99.90
13835;DHT22;6988;52.614;13.500;2023-03-01T04:05:18;-3.20;99.90
13835;DHT22;6988;52.614;13.500;2023-03-01T04:10:12;-3.20;99.90
13835;DHT22;6988;52.614;13.500;2023-03-01T04:15:07;-3.20;99.90
13835;DHT22;6988;52.614;13.500;2023-03-01T04:20:06;-3.20;99.90
13835;DHT22;6988;52.614;13.500;2023-03-01T04:25:01;-3.20;99.90
13835;DHT22;6988;52.614;13.500;2023-03-01T04:29:55;-3.30;99.90
13835;DHT22;6988;52.614;13.500;2023-03-01T04:34:47;-3.30;99.90
13835;DHT22;6988;52.614;13.500;2023-03-01T04:39:40;-3.30;99.90
13835;DHT22;6988;52.614;13.500;2023-03-01T04:44:35;-3.30;99.90
13835;DHT22;6988;52.614;13.500;2023-03-01T04:49:27;-3.30;99.90
13835;DHT22;6988;52.614;13.500;2023-03-01T04:54:19;-3.40;99.90
13835;DHT22;6988;52.614;13.500;2023-03-01T04:59:12;-3.40;99.90
13835;DHT22;6988;52.614;13.500;2023-03-01T05:04:05;-3.40;99.90
13835;DHT22;6988;52.614;13.500;2023-03-01T05:08:57;-3.40;99.90
13835;DHT22;6988;52.614;13.500;2023-03-01T05:13:49;-3.50;99.90
13835;DHT22;6988;52.614;13.500;2023-03-01T05:18:46;-3.50;99.90
13835;DHT22;6988;52.614;13.500;2023-03-01T05:23:38;-3.50;99.90
13835;DHT22;6988;52.614;13.500;2023-03-01T05:28:31;-3.50;99.90
13835;DHT22;6988;52.614;13.500;2023-03-01T05:33:24;-3.60;99.90
13835;DHT22;6988;52.614;13.500;2023-03-01T05:38:17;-3.60;99.90
13835;DHT22;6988;52.614;13.500;2023-03-01T05:43:10;-3.60;99.90
13835;DHT22;6988;52.614;13.500;2023-03-01T05:48:04;-3.60;99.90
13835;DHT22;6988;52.614;13.500;2023-03-01T05:52:59;-3.60;99.90
13835;DHT22;6988;52.614;13.500;2023-03-01T05:57:55;-3.60;99.90
13835;DHT22;6988;52.614;13.500;2023-03-01T06:02:49;-3.60;99.90
13835;DHT22;6988;52.614;13.500;2023-03-01T06:07:42;-3.60;99.90
13835;DHT22;6988;52.614;13.500;2023-03-01T06:12:35;-3.60;99.90
13835;DHT22;6988;52.614;13.500;2023-03-01T06:17:31;-3.60;99.90
13835;DHT22;6988;52.614;13.500;2023-03-01T06:22:27;-3.60;99.90
13835;DHT22;6988;52.614;13.500;2023-03-01T06:27:19;-3.50;99.90
13835;DHT22;6988;52.614;13.500;2023-03-01T06:32:11;-3.40;99.90
13835;DHT22;6988;52.614;13.500;2023-03-01T06:37:07;-3.40;99.90
13835;DHT22;6988;52.614;13.500;2023-03-01T06:41:59;-3.30;99.90
13835;DHT22;6988;52.614;13.500;2023-03-01T06:46:51;-3.20;99.90
13835;DHT22;6988;52.614;13.500;2023-03-01T06:51:43;-3.10;99.90
13835;DHT22;6988;52.614;13.500;2023-03-01T06:56:37;-3.00;99.90
13835;DHT22;6988;52.614;13.500;2023-03-01T07:01:29;-2.60;99.90
13835;DHT22;6988;52.614;13.500;2023-03-01T07:06:22;-2.10;99.90
13835;DHT22;6988;52.614;13.500;2023-03-01T07:11:15;-1.70;99.90
13835;DHT22;6988;52.614;13.500;2023-03-01T07:16:09;-1.10;99.90
13835;DHT22;6988;52.614;13.500;2023-03-01T07:21:04;-0.50;99.90
13835;DHT22;6988;52.614;13.500;2023-03-01T07:25:57;0.10;99.90
13835;DHT22;6988;52.614;13.500;2023-03-01T07:30:48;0.70;99.90
13835;DHT22;6988;52.614;13.500;2023-03-01T07:35:41;1.20;99.90
13835;DHT22;6988;52.614;13.500;2023-03-01T07:40:33;1.70;99.90
13835;DHT22;6988;52.614;13.500;2023-03-01T07:45:25;2.20;99.90
13835;DHT22;6988;52.614;13.500;2023-03-01T07:50:19;2.60;99.90
13835;DHT22;6988;52.614;13.500;2023-03-01T07:55:13;3.00;99.90
13835;DHT22;6988;52.614;13.500;2023-03-01T08:00:07;3.50;99.90
13835;DHT22;6988;52.614;13.500;2023-03-01T08:05:05;3.90;99.90
13835;DHT22;6988;52.614;13.500;2023-03-01T08:09:57;4.20;99.90
13835;DHT22;6988;52.614;13.500;2023-03-01T08:14:50;4.20;99.90
13835;DHT22;6988;52.614;13.500;2023-03-01T08:19:42;4.30;99.90
13835;DHT22;6988;52.614;13.500;2023-03-01T08:24:35;4.60;99.90
13835;DHT22;6988;52.614;13.500;2023-03-01T08:29:26;4.70;99.90
13835;DHT22;6988;52.614;13.500;2023-03-01T08:34:19;4.90;99.90
13835;DHT22;6988;52.614;13.500;2023-03-01T08:39:13;5.50;99.90
13835;DHT22;6988;52.614;13.500;2023-03-01T23:05:06;-0.60;99.90
13835;DHT22;6988;52.614;13.500;2023-03-01T23:09:59;-0.80;99.90
13835;DHT22;6988;52.614;13.500;2023-03-01T23:14:51;-0.80;99.90
13835;DHT22;6988;52.614;13.500;2023-03-01T23:19:43;-0.70;99.90
13835;DHT22;6988;52.614;13.500;2023-03-01T23:24:36;-0.80;99.90
13835;DHT22;6988;52.614;13.500;2023-03-01T23:29:29;-0.70;99.90
13835;DHT22;6988;52.614;13.500;2023-03-01T23:34:22;-0.70;99.90
13835;DHT22;6988;52.614;13.500;2023-03-01T23:39:14;-0.70;99.90
13835;DHT22;6988;52.614;13.500;2023-03-01T23:44:07;-0.60;99.90
13835;DHT22;6988;52.614;13.500;2023-03-01T23:49:01;-0.70;99.90
13835;DHT22;6988;52.614;13.500;2023-03-01T23:53:56;-0.70;99.90
13835;DHT22;6988;52.614;13.500;2023-03-01T23:58:50;-0.70;99.90
